createdAt,value
2022-12-31T00:01:00.238Z,100.00
2022-12-31T00:03:27.258Z,100.00
2022-12-31T00:05:54.121Z,100.00
2022-12-31T00:08:20.851Z,100.00
2022-12-31T00:10:47.661Z,100.00
2022-12-31T00:13:14.895Z,100.00
2022-12-31T00:15:43.038Z,100.00
2022-12-31T00:18:11.530Z,100.00
2022-12-31T00:20:42.037Z,100.00
2022-12-31T00:23:10.546Z,100.00
2022-12-31T00:25:37.907Z,100.00
2022-12-31T00:28:05.550Z,100.00
2022-12-31T00:30:32.420Z,100.00
2022-12-31T00:32:59.308Z,100.00
2022-12-31T00:35:26.786Z,100.00
2022-12-31T00:37:53.489Z,100.00
2022-12-31T00:40:20.386Z,100.00
2022-12-31T00:42:47.135Z,100.00
2022-12-31T00:45:13.913Z,100.00
2022-12-31T00:47:40.620Z,100.00
2022-12-31T00:50:07.734Z,100.00
2022-12-31T00:52:34.477Z,100.00
2022-12-31T00:55:01.229Z,100.00
2022-12-31T00:57:27.971Z,100.00
2022-12-31T00:59:54.662Z,100.00
2022-12-31T01:02:21.621Z,100.00
2022-12-31T01:04:48.568Z,100.00
2022-12-31T01:07:15.276Z,100.00
2022-12-31T01:09:42.158Z,100.00
2022-12-31T01:12:08.963Z,100.00
2022-12-31T01:14:35.760Z,100.00
2022-12-31T01:17:02.500Z,100.00
2022-12-31T01:19:29.863Z,100.00
2022-12-31T01:21:57.265Z,100.00
2022-12-31T01:24:24.449Z,100.00
2022-12-31T01:26:51.773Z,100.00
2022-12-31T01:29:18.647Z,100.00
2022-12-31T01:31:45.509Z,100.00
2022-12-31T01:34:12.379Z,100.00
2022-12-31T01:36:39.425Z,100.00
2022-12-31T01:39:08.169Z,100.00
2022-12-31T01:41:40.977Z,100.00
2022-12-31T01:44:13.805Z,100.00
2022-12-31T01:46:44.939Z,100.00
2022-12-31T01:49:38.859Z,100.00
2022-12-31T01:52:19.555Z,100.00
2022-12-31T01:54:59.647Z,100.00
2022-12-31T01:57:27.373Z,100.00
2022-12-31T01:59:56.585Z,100.00
2022-12-31T02:02:23.775Z,100.00
2022-12-31T02:04:54.584Z,100.00
2022-12-31T02:07:22.707Z,100.00
2022-12-31T02:09:49.562Z,100.00
2022-12-31T02:12:16.335Z,100.00
2022-12-31T02:14:46.763Z,100.00
2022-12-31T02:17:16.505Z,100.00
2022-12-31T02:20:32.816Z,100.00
2022-12-31T02:23:21.087Z,100.00
2022-12-31T02:26:06.695Z,100.00
2022-12-31T02:28:36.215Z,100.00
2022-12-31T02:31:43.442Z,100.00
2022-12-31T02:34:13.719Z,100.00
2022-12-31T02:36:44.432Z,100.00
2022-12-31T02:39:13.821Z,100.00
2022-12-31T02:41:52.553Z,100.00
2022-12-31T02:44:28.812Z,100.00
2022-12-31T02:47:24.106Z,100.00
2022-12-31T02:50:21.723Z,100.00
2022-12-31T02:53:01.136Z,100.00
2022-12-31T02:55:42.011Z,100.00
2022-12-31T02:58:14.954Z,100.00
2022-12-31T03:01:10.132Z,100.00
2022-12-31T03:03:38.220Z,100.00
2022-12-31T03:06:07.840Z,100.00
2022-12-31T03:08:54.749Z,100.00
2022-12-31T03:11:40.346Z,100.00
2022-12-31T03:14:07.080Z,100.00
2022-12-31T03:16:35.053Z,100.00
2022-12-31T03:19:20.585Z,100.00
2022-12-31T03:22:05.785Z,100.00
2022-12-31T03:24:51.093Z,100.00
2022-12-31T03:27:17.805Z,100.00
2022-12-31T03:29:44.575Z,100.00
2022-12-31T03:32:11.309Z,100.00
2022-12-31T03:34:38.007Z,100.00
2022-12-31T03:37:04.721Z,100.00
2022-12-31T03:39:31.442Z,100.00
2022-12-31T03:41:58.546Z,100.00
2022-12-31T03:44:25.283Z,100.00
2022-12-31T03:46:52.012Z,100.00
2022-12-31T03:49:18.711Z,100.00
2022-12-31T03:51:45.414Z,100.00
2022-12-31T03:54:12.109Z,100.00
2022-12-31T03:56:38.832Z,100.00
2022-12-31T03:59:05.537Z,100.00
2022-12-31T04:01:32.640Z,100.00
2022-12-31T04:03:59.605Z,100.00
2022-12-31T04:06:26.310Z,100.00
2022-12-31T04:08:53.059Z,100.00
2022-12-31T04:11:21.108Z,100.00
2022-12-31T04:13:48.061Z,100.00
2022-12-31T04:16:14.827Z,100.00
2022-12-31T04:18:41.594Z,100.00
2022-12-31T04:21:08.290Z,100.00
2022-12-31T04:23:35.046Z,100.00
2022-12-31T04:26:01.947Z,100.00
2022-12-31T04:28:28.673Z,100.00
2022-12-31T04:30:55.411Z,100.00
2022-12-31T04:33:22.124Z,100.00
2022-12-31T04:35:48.846Z,100.00
2022-12-31T04:38:15.578Z,100.00
2022-12-31T04:41:00.990Z,100.00
2022-12-31T04:43:27.948Z,100.00
2022-12-31T04:45:54.723Z,100.00
2022-12-31T04:48:21.487Z,100.00
2022-12-31T04:50:48.248Z,100.00
2022-12-31T04:53:14.928Z,100.00
2022-12-31T04:55:41.659Z,100.00
2022-12-31T04:58:08.379Z,100.00
2022-12-31T05:00:35.084Z,100.00
2022-12-31T05:03:01.849Z,100.00
2022-12-31T05:05:28.592Z,100.00
2022-12-31T05:07:55.345Z,100.00
2022-12-31T05:10:22.066Z,100.00
2022-12-31T05:12:48.790Z,100.00
2022-12-31T05:15:15.527Z,100.00
2022-12-31T05:17:42.218Z,100.00
2022-12-31T05:20:09.292Z,100.00
2022-12-31T05:22:35.978Z,100.00
2022-12-31T05:25:02.848Z,100.00
2022-12-31T05:27:33.293Z,100.00
2022-12-31T05:30:00.112Z,100.00
2022-12-31T05:32:26.942Z,100.00
2022-12-31T05:34:53.699Z,100.00
2022-12-31T05:37:20.370Z,100.00
2022-12-31T05:39:47.121Z,100.00
2022-12-31T05:42:13.814Z,100.00
2022-12-31T05:44:40.516Z,99.81
2022-12-31T05:47:07.242Z,99.77
2022-12-31T05:49:34.075Z,99.89
2022-12-31T05:52:01.148Z,98.25
2022-12-31T05:54:27.856Z,98.13
2022-12-31T05:56:54.654Z,98.45
2022-12-31T05:59:21.556Z,98.37
2022-12-31T06:01:48.328Z,98.32
2022-12-31T06:04:15.073Z,97.43
2022-12-31T06:06:41.796Z,96.50
2022-12-31T06:09:08.781Z,96.54
2022-12-31T06:11:35.705Z,97.11
2022-12-31T06:14:03.517Z,97.91
2022-12-31T06:16:30.230Z,98.18
2022-12-31T06:18:57.053Z,97.26
2022-12-31T06:21:23.830Z,97.88
2022-12-31T06:23:50.561Z,97.37
2022-12-31T06:26:17.476Z,97.01
2022-12-31T06:28:44.221Z,97.21
2022-12-31T06:31:13.617Z,98.39
2022-12-31T06:33:41.496Z,97.22
2022-12-31T06:36:09.352Z,98.10
2022-12-31T06:38:38.523Z,98.63
2022-12-31T06:41:10.206Z,97.75
2022-12-31T06:43:38.358Z,98.07
2022-12-31T06:46:07.764Z,97.81
2022-12-31T06:48:35.250Z,98.70
2022-12-31T06:51:08.560Z,100.00
2022-12-31T06:53:37.452Z,100.00
2022-12-31T06:56:08.538Z,100.00
2022-12-31T06:58:35.768Z,100.00
2022-12-31T07:01:14.608Z,100.00
2022-12-31T07:03:52.644Z,100.00
2022-12-31T07:06:44.132Z,99.74
2022-12-31T07:09:18.098Z,100.00
2022-12-31T07:11:53.837Z,98.09
2022-12-31T07:14:50.087Z,100.00
2022-12-31T07:17:41.989Z,100.00
2022-12-31T07:20:17.829Z,100.00
2022-12-31T07:22:45.846Z,100.00
2022-12-31T07:25:17.358Z,100.00
2022-12-31T07:27:46.981Z,100.00
2022-12-31T07:30:35.660Z,100.00
2022-12-31T07:33:31.597Z,100.00
2022-12-31T07:36:13.230Z,100.00
2022-12-31T07:38:53.617Z,100.00
2022-12-31T07:41:52.410Z,100.00
2022-12-31T07:44:29.160Z,100.00
2022-12-31T07:46:58.839Z,100.00
2022-12-31T07:49:27.759Z,100.00
2022-12-31T07:51:54.939Z,100.00
2022-12-31T07:54:21.989Z,100.00
2022-12-31T07:56:50.133Z,100.00
2022-12-31T07:59:48.755Z,100.00
2022-12-31T08:02:18.364Z,100.00
2022-12-31T08:04:53.954Z,100.00
2022-12-31T08:07:37.455Z,100.00
2022-12-31T08:10:10.161Z,100.00
2022-12-31T08:12:41.483Z,100.00
2022-12-31T08:15:16.026Z,100.00
2022-12-31T08:17:43.769Z,100.00
2022-12-31T08:20:17.531Z,100.00
2022-12-31T08:23:05.774Z,100.00
2022-12-31T08:25:43.100Z,100.00
2022-12-31T08:28:18.152Z,100.00
2022-12-31T08:31:01.735Z,100.00
2022-12-31T08:33:34.458Z,100.00
2022-12-31T08:36:27.275Z,100.00
2022-12-31T08:39:21.074Z,100.00
2022-12-31T08:41:54.195Z,100.00
2022-12-31T08:44:32.949Z,100.00
2022-12-31T08:47:02.670Z,100.00
2022-12-31T08:49:32.168Z,100.00
2022-12-31T08:52:00.497Z,100.00
2022-12-31T08:54:27.757Z,100.00
2022-12-31T08:57:05.694Z,100.00
2022-12-31T09:00:11.141Z,100.00
2022-12-31T09:02:48.377Z,100.00
2022-12-31T09:05:22.167Z,100.00
2022-12-31T09:08:24.131Z,100.00
2022-12-31T09:10:58.859Z,99.43
2022-12-31T09:13:47.315Z,99.63
2022-12-31T09:16:19.230Z,100.00
2022-12-31T09:18:46.046Z,100.00
2022-12-31T09:21:14.751Z,100.00
2022-12-31T09:23:43.334Z,98.95
2022-12-31T09:26:34.293Z,97.95
2022-12-31T09:29:33.315Z,97.43
2022-12-31T09:32:34.567Z,97.73
2022-12-31T09:35:30.609Z,98.08
2022-12-31T09:38:13.433Z,97.87
2022-12-31T09:40:58.572Z,99.69
2022-12-31T09:43:45.219Z,100.00
2022-12-31T09:46:11.883Z,100.00
2022-12-31T09:48:57.231Z,100.00
2022-12-31T09:51:25.628Z,100.00
2022-12-31T09:54:20.304Z,100.00
2022-12-31T09:56:59.210Z,100.00
2022-12-31T10:00:01.660Z,100.00
2022-12-31T10:03:05.451Z,100.00
2022-12-31T10:05:50.482Z,99.25
2022-12-31T10:08:44.595Z,97.97
2022-12-31T10:11:11.257Z,97.59
2022-12-31T10:14:02.695Z,96.12
2022-12-31T10:16:44.142Z,95.34
2022-12-31T10:19:31.822Z,95.79
2022-12-31T10:21:58.480Z,96.00
2022-12-31T10:24:41.604Z,96.28
2022-12-31T10:27:33.968Z,95.61
2022-12-31T10:30:22.309Z,95.65
2022-12-31T10:32:55.291Z,96.61
2022-12-31T10:35:40.367Z,96.34
2022-12-31T10:38:25.513Z,96.56
2022-12-31T10:41:29.517Z,96.55
2022-12-31T10:44:01.939Z,96.04
2022-12-31T10:46:44.109Z,96.15
2022-12-31T10:49:19.749Z,95.85
2022-12-31T10:51:58.321Z,94.95
2022-12-31T10:54:27.882Z,93.96
2022-12-31T10:57:07.223Z,94.12
2022-12-31T10:59:40.086Z,94.35
2022-12-31T11:02:22.320Z,93.49
2022-12-31T11:05:07.888Z,91.99
2022-12-31T11:07:40.241Z,92.28
2022-12-31T11:10:20.197Z,91.59
2022-12-31T11:13:00.875Z,91.64
2022-12-31T11:16:06.680Z,91.60
2022-12-31T11:18:58.311Z,91.69
2022-12-31T11:21:41.342Z,91.45
2022-12-31T11:24:34.933Z,91.04
2022-12-31T11:27:13.053Z,91.11
2022-12-31T11:30:03.954Z,91.24
2022-12-31T11:33:00.900Z,91.38
2022-12-31T11:35:49.151Z,91.18
2022-12-31T11:38:25.937Z,91.69
2022-12-31T11:41:29.231Z,92.00
2022-12-31T11:44:10.591Z,92.73
2022-12-31T11:47:07.446Z,94.45
2022-12-31T11:49:52.528Z,97.45
2022-12-31T11:52:48.909Z,100.00
2022-12-31T11:55:50.817Z,100.00
2022-12-31T11:58:20.742Z,100.00
2022-12-31T12:01:07.545Z,100.00
2022-12-31T12:03:38.654Z,100.00
2022-12-31T12:06:05.896Z,100.00
2022-12-31T12:08:33.712Z,100.00
2022-12-31T12:11:06.696Z,100.00
2022-12-31T12:13:33.592Z,100.00
2022-12-31T12:16:03.325Z,100.00
2022-12-31T12:18:36.107Z,100.00
2022-12-31T12:21:08.335Z,100.00
2022-12-31T12:23:35.160Z,100.00
2022-12-31T12:26:02.353Z,99.46
2022-12-31T12:28:31.610Z,98.75
2022-12-31T12:31:03.353Z,97.57
2022-12-31T12:33:41.645Z,96.91
2022-12-31T12:36:14.537Z,96.96
2022-12-31T12:38:42.778Z,96.06
2022-12-31T12:41:26.483Z,95.25
2022-12-31T12:44:15.398Z,93.90
2022-12-31T12:46:48.757Z,92.10
2022-12-31T12:49:41.420Z,92.05
2022-12-31T12:52:45.819Z,90.85
2022-12-31T12:55:17.380Z,90.82
2022-12-31T12:57:53.178Z,88.78
2022-12-31T13:00:20.015Z,88.00
2022-12-31T13:03:24.621Z,87.81
2022-12-31T13:06:13.146Z,87.05
2022-12-31T13:08:48.905Z,86.99
2022-12-31T13:11:35.162Z,85.76
2022-12-31T13:14:17.148Z,86.90
2022-12-31T13:17:07.325Z,85.76
2022-12-31T13:19:33.979Z,85.25
2022-12-31T13:22:22.205Z,85.66
2022-12-31T13:24:56.870Z,85.68
2022-12-31T13:27:35.373Z,86.33
2022-12-31T13:30:18.328Z,86.46
2022-12-31T13:32:50.269Z,85.20
2022-12-31T13:35:47.922Z,86.01
2022-12-31T13:38:27.983Z,86.44
2022-12-31T13:40:57.770Z,85.71
2022-12-31T13:43:56.576Z,85.76
2022-12-31T13:46:26.295Z,86.19
2022-12-31T13:48:56.790Z,86.19
2022-12-31T13:51:26.434Z,84.86
2022-12-31T13:54:10.708Z,85.03
2022-12-31T13:56:40.115Z,84.88
2022-12-31T13:59:27.970Z,84.81
2022-12-31T14:02:04.613Z,85.00
2022-12-31T14:04:41.711Z,85.11
2022-12-31T14:07:20.500Z,84.38
2022-12-31T14:09:47.308Z,84.43
2022-12-31T14:12:13.929Z,84.81
2022-12-31T14:15:07.227Z,84.07
2022-12-31T14:17:45.760Z,83.17
2022-12-31T14:20:32.743Z,82.48
2022-12-31T14:23:36.999Z,83.11
2022-12-31T14:26:27.720Z,82.07
2022-12-31T14:29:19.215Z,82.11
2022-12-31T14:31:49.140Z,81.61
2022-12-31T14:34:18.875Z,81.23
2022-12-31T14:37:13.246Z,81.81
2022-12-31T14:40:01.668Z,82.16
2022-12-31T14:42:52.733Z,82.90
2022-12-31T14:45:22.287Z,83.13
2022-12-31T14:47:52.063Z,83.09
2022-12-31T14:51:03.639Z,83.17
2022-12-31T14:53:29.127Z,83.83
2022-12-31T14:56:23.067Z,83.82
2022-12-31T14:59:03.880Z,83.92
2022-12-31T15:01:30.717Z,84.14
2022-12-31T15:03:58.419Z,82.73
2022-12-31T15:06:43.633Z,83.56
2022-12-31T15:09:34.616Z,83.84
2022-12-31T15:12:19.165Z,83.30
2022-12-31T15:14:45.827Z,82.99
2022-12-31T15:17:48.761Z,83.58
2022-12-31T15:20:52.213Z,83.47
2022-12-31T15:23:40.251Z,83.88
2022-12-31T15:26:08.489Z,83.33
2022-12-31T15:28:37.795Z,83.60
2022-12-31T15:31:17.419Z,83.65
2022-12-31T15:34:03.423Z,83.37
2022-12-31T15:36:38.561Z,83.11
2022-12-31T15:39:25.521Z,82.47
2022-12-31T15:42:36.084Z,83.19
2022-12-31T15:45:02.713Z,81.70
2022-12-31T15:47:46.133Z,81.56
2022-12-31T15:50:18.105Z,81.17
2022-12-31T15:52:55.795Z,81.33
2022-12-31T15:55:44.111Z,81.24
2022-12-31T15:58:13.909Z,81.58
2022-12-31T16:00:51.170Z,81.56
2022-12-31T16:03:27.080Z,80.99
2022-12-31T16:06:00.412Z,80.36
2022-12-31T16:08:34.209Z,79.60
2022-12-31T16:11:04.919Z,79.43
2022-12-31T16:13:35.122Z,78.90
2022-12-31T16:16:05.368Z,78.68
2022-12-31T16:18:44.029Z,78.50
2022-12-31T16:21:34.610Z,76.82
2022-12-31T16:24:26.216Z,75.69
2022-12-31T16:26:56.252Z,74.08
2022-12-31T16:29:24.179Z,74.14
2022-12-31T16:31:53.114Z,72.62
2022-12-31T16:34:22.634Z,72.86
2022-12-31T16:36:56.666Z,72.21
2022-12-31T16:39:30.384Z,72.16
2022-12-31T16:42:20.135Z,72.44
2022-12-31T16:44:51.557Z,72.02
2022-12-31T16:47:31.756Z,71.68
2022-12-31T16:50:07.992Z,71.14
2022-12-31T16:52:40.930Z,71.48
2022-12-31T16:55:18.321Z,70.94
2022-12-31T16:57:49.076Z,70.09
2022-12-31T17:00:18.313Z,69.58
2022-12-31T17:02:54.075Z,69.81
2022-12-31T17:05:23.614Z,69.33
2022-12-31T17:07:50.896Z,68.66
2022-12-31T17:10:24.529Z,68.97
2022-12-31T17:15:45.047Z,68.54
2022-12-31T17:18:21.005Z,67.48
2022-12-31T17:20:49.742Z,68.20
2022-12-31T17:23:31.550Z,67.67
2022-12-31T17:26:20.661Z,66.45
2022-12-31T17:28:50.001Z,66.24
2022-12-31T17:31:36.549Z,65.68
2022-12-31T17:34:19.801Z,66.41
2022-12-31T17:37:04.058Z,65.43
2022-12-31T17:39:46.261Z,65.25
2022-12-31T17:42:15.165Z,64.96
2022-12-31T17:44:44.538Z,65.13
2022-12-31T17:47:14.123Z,64.29
2022-12-31T17:49:45.067Z,63.84
2022-12-31T17:52:14.101Z,64.48
2022-12-31T17:54:41.261Z,63.66
2022-12-31T17:57:27.741Z,63.82
2022-12-31T17:59:54.647Z,63.91
2022-12-31T18:02:21.506Z,64.37
2022-12-31T18:04:48.298Z,64.24
2022-12-31T18:07:15.029Z,64.98
2022-12-31T18:09:41.797Z,63.69
2022-12-31T18:12:13.976Z,63.37
2022-12-31T18:14:42.536Z,63.74
2022-12-31T18:17:15.314Z,62.75
2022-12-31T18:22:29.848Z,63.45
2022-12-31T18:24:56.539Z,63.19
2022-12-31T18:27:23.263Z,62.57
2022-12-31T18:29:50.075Z,61.35
2022-12-31T18:32:25.263Z,61.98
2022-12-31T18:34:52.459Z,61.41
2022-12-31T18:37:22.327Z,61.67
2022-12-31T18:39:49.173Z,61.71
2022-12-31T18:42:18.685Z,61.89
2022-12-31T18:44:46.476Z,61.61
2022-12-31T18:47:14.170Z,61.87
2022-12-31T18:49:41.052Z,61.46
2022-12-31T18:52:14.213Z,60.51
2022-12-31T18:54:41.151Z,60.67
2022-12-31T18:57:09.120Z,59.56
2022-12-31T18:59:35.857Z,59.40
2022-12-31T19:02:02.721Z,58.63
2022-12-31T19:04:29.699Z,57.01
2022-12-31T19:07:01.402Z,56.05
2022-12-31T19:09:45.102Z,54.53
2022-12-31T19:12:13.850Z,54.45
2022-12-31T19:14:40.638Z,54.23
2022-12-31T19:19:33.114Z,52.58
2022-12-31T19:22:00.136Z,52.94
2022-12-31T19:24:27.970Z,52.00
2022-12-31T19:26:55.158Z,51.63
2022-12-31T19:29:27.721Z,51.51
2022-12-31T19:31:54.785Z,51.77
2022-12-31T19:34:22.226Z,51.39
2022-12-31T19:36:49.064Z,51.47
2022-12-31T19:39:21.416Z,51.28
2022-12-31T19:41:56.435Z,51.17
2022-12-31T19:44:25.693Z,51.65
2022-12-31T19:46:52.460Z,51.07
2022-12-31T19:49:19.168Z,51.17
2022-12-31T19:51:45.880Z,51.31
2022-12-31T19:54:13.793Z,51.44
2022-12-31T19:56:40.391Z,51.67
2022-12-31T19:59:09.587Z,51.68
2022-12-31T20:01:36.422Z,52.11
2022-12-31T20:04:03.483Z,51.78
2022-12-31T20:06:30.210Z,51.93
2022-12-31T20:08:56.981Z,52.08
2022-12-31T20:11:25.003Z,51.57
2022-12-31T20:13:53.949Z,52.12
2022-12-31T20:16:24.026Z,51.30
2022-12-31T20:18:50.930Z,51.22
2022-12-31T20:21:23.773Z,51.47
2022-12-31T20:23:52.128Z,51.36
2022-12-31T20:26:20.160Z,51.55
2022-12-31T20:28:47.145Z,51.88
2022-12-31T20:31:16.826Z,52.24
2022-12-31T20:33:44.475Z,52.06
2022-12-31T20:36:13.932Z,50.84
2022-12-31T20:38:40.942Z,51.66
2022-12-31T20:41:19.418Z,51.26
2022-12-31T20:43:46.586Z,51.05
2022-12-31T20:46:16.487Z,50.83
2022-12-31T20:48:44.395Z,50.54
2022-12-31T20:51:11.550Z,50.35
2022-12-31T20:53:38.548Z,49.93
2022-12-31T20:56:06.711Z,50.33
2022-12-31T20:58:34.280Z,50.28
2022-12-31T21:01:01.574Z,50.40
2022-12-31T21:04:03.870Z,50.38
2022-12-31T21:06:15.752Z,50.06
2022-12-31T21:08:43.552Z,49.62
2022-12-31T21:11:29.389Z,49.81
2022-12-31T21:13:57.981Z,49.25
2022-12-31T21:16:25.843Z,49.51
2022-12-31T21:18:52.743Z,49.17
2022-12-31T21:21:19.675Z,49.32
2022-12-31T21:23:46.707Z,49.23
2022-12-31T21:26:14.929Z,49.28
2022-12-31T21:28:41.931Z,49.26
2022-12-31T21:31:11.189Z,49.53
2022-12-31T21:33:38.086Z,48.77
2022-12-31T21:36:05.308Z,49.26
2022-12-31T21:38:32.235Z,48.85
2022-12-31T21:41:06.804Z,49.11
2022-12-31T21:43:34.073Z,49.15
2022-12-31T21:46:07.700Z,49.22
2022-12-31T21:48:34.461Z,49.65
2022-12-31T21:51:10.197Z,49.60
2022-12-31T21:53:37.617Z,49.24
2022-12-31T21:56:08.527Z,49.45
2022-12-31T21:58:40.571Z,49.24
2022-12-31T22:01:29.233Z,48.90
2022-12-31T22:03:56.026Z,49.02
2022-12-31T22:06:24.202Z,49.29
2022-12-31T22:08:53.485Z,49.83
2022-12-31T22:11:23.276Z,49.77
2022-12-31T22:13:50.957Z,49.67
2022-12-31T22:16:20.274Z,49.59
2022-12-31T22:18:48.078Z,49.66
2022-12-31T22:21:19.957Z,49.68
2022-12-31T22:23:52.462Z,49.66
2022-12-31T22:26:22.006Z,49.37
2022-12-31T22:28:49.039Z,49.44
2022-12-31T22:31:18.775Z,49.45
2022-12-31T22:33:45.989Z,49.29
2022-12-31T22:36:15.799Z,49.32
2022-12-31T22:38:42.867Z,48.86
2022-12-31T22:41:15.392Z,49.26
2022-12-31T22:43:44.936Z,48.94
2022-12-31T22:46:25.147Z,48.59
2022-12-31T22:48:54.224Z,48.38
2022-12-31T22:51:21.015Z,47.80
2022-12-31T22:53:47.911Z,47.56
2022-12-31T22:56:17.196Z,47.61
2022-12-31T22:58:44.854Z,47.26
2022-12-31T23:01:18.145Z,47.28
2022-12-31T23:03:46.712Z,47.04
2022-12-31T23:06:14.091Z,46.91
2022-12-31T23:08:41.626Z,47.34
2022-12-31T23:11:11.472Z,46.53
2022-12-31T23:14:01.652Z,46.75
2022-12-31T23:16:48.368Z,45.96
2022-12-31T23:19:34.588Z,46.02
2022-12-31T23:22:20.041Z,45.16
2022-12-31T23:24:46.872Z,45.60
2022-12-31T23:27:15.826Z,45.02
2022-12-31T23:29:47.250Z,45.09
2022-12-31T23:32:16.426Z,45.06
2022-12-31T23:34:44.643Z,44.77
2022-12-31T23:37:13.047Z,44.83
2022-12-31T23:39:40.188Z,44.09
2022-12-31T23:42:07.027Z,44.19
2022-12-31T23:44:33.763Z,44.08
2022-12-31T23:47:00.582Z,43.79
2022-12-31T23:49:27.342Z,43.86
2022-12-31T23:51:54.058Z,43.83
2022-12-31T23:54:20.809Z,44.11
2022-12-31T23:56:47.537Z,44.03
2022-12-31T23:59:14.242Z,43.97
